Morocco, IN (47963)

1:05 AM CST on January 19, 2017 (GMT -0600)
KINMOROC2 | | Change Station
Active Advisory: Flood Warning

Elev 685 ft 41.02 °N, 87.45 °W | Updated 6 minutes ago

Mostly Cloudy
Mostly Cloudy
35.4 °F
Feels Like 35 °F
N
3.0
Wind Variable Wind from SSW
Gusts 6.0 mph

Today
High -- | Low -- °F
--% Chance of Precip.
Yesterday
High -- | Low -- °F
Precip. -- in
Pressure 30.09 in
Visibility 7.0 miles
Clouds Clear
Windchill 35 °F
Dew Point 33 °F
Humidity 92%
Rainfall 0.00 in
Snow Depth Not available.
7:10 AM 4:51 PM
Waning Gibbous, 56% visible
METAR KIKK 190635Z AUTO 00000KT 7SM CLR 01/00 A3009 RMK AO2 T00100002
Pressure 30.09 in
Visibility 7.0 miles
Clouds Clear
Windchill 35 °F
Dew Point 33 °F
Humidity 92%
Rainfall 0.00 in
Snow Depth Not available.
7:10 AM 4:51 PM
Waning Gibbous, 56% visible
METAR KIKK 190635Z AUTO 00000KT 7SM CLR 01/00 A3009 RMK AO2 T00100002

Get Your Daily Forecast Email!

Thanks for signing up!

Be on the lookout for a verification email in your inbox.

You'll start receiving the daily forecast at 8 AM.

×

10-Day Weather Forecast

Almanac

Astronomy

Jan. 19, 2017 Rise Set
Actual Time
Civil Twilight
Nautical Twilight
Astronomical Twilight
Moon
Length of Visible Light
Length of Day
Tomorrow will be .
, % of the Moon is Illuminated

Today's Extremes

State Highs State Lows

Community

WunderPhotos

Upload Photos

1,962,540 photos uploaded!

WunderBlog® & News

Nearby

Air Quality

  Air Quality AQ Index Pollutant
Not available.

Snow Depth

Station Depth Elevation

Earthquake Activity

City Distance Mag. Time & Date
Minimum magnitude displayed is 2.5.

Coastal Water Temperatures

Place Temperature

Stations

Nearby Weather Stations

Station Location Temp. Windchill Dew Point Humidity Wind Precip. Elev Updated Type
                   

Watches & Warnings

Flood Warning
Issued: 8:13 PM CST Jan. 18, 2017 – National Weather Service

The Flood Warning continues for
the Kankakee River at Shelby.
* Until further notice.
* At 745 PM Wednesday the stage was 9.2 feet.
* Flood stage is 9.0 feet.
* Minor flooding is occurring and minor flooding is forecast.
* Forecast... the river will continue rising to near 10.3 feet by
Saturday morning then begin falling.
* Impact... at 10.0 feet... flooding affects County and local roads.
Wildwood Estates and Sumava Resorts begin to experience some
flooding.


Lat... Lon 4127 8727 4121 8756 4111 8753 4118 8722